Time;durP1;ratioP1;P1;durP2;ratioP2;P2;SDS_P1;SDS_P2;PMS_P1;PMS_P2;Temp;Humidity;BMP_temperature;BMP_pressure;BME280_temperature;BME280_humidity;BME280_pressure;Samples;Min_cycle;Max_cycle;Signal;HPM_P1;HPM_P2
2021/11/17 02:26:23;;;;;;;29.25;20.52;;;;;;;;;;5030673;28;20078;-79
2021/11/17 02:29:08;;;;;;;32.92;21.10;;;;;;;;;;5030661;28;20072;-79
2021/11/17 02:31:44;;;;;;;33.28;21.52;;;;;;;;;;5029734;28;20025;-78
2021/11/17 02:34:19;;;;;;;32.38;20.35;;;;;;;;;;5030583;28;20111;-79
2021/11/17 02:36:48;;;;;;;35.30;22.27;;;;;;;;;;5030376;28;20133;-79
2021/11/17 02:39:23;;;;;;;32.17;22.00;;;;;;;;;;5030814;28;20467;-79
2021/11/17 02:42:08;;;;;;;30.70;21.58;;;;;;;;;;5030513;28;20038;-78
2021/11/17 02:44:40;;;;;;;32.20;20.13;;;;;;;;;;5021203;28;20071;-79
2021/11/17 02:47:06;;;;;;;;;;;;;;;;;;5031249;28;20044;-79
2021/11/17 02:49:32;;;;;;;31.33;20.80;;;;;;;;;;5030669;28;19913;-79
2021/11/17 02:52:04;;;;;;;37.42;24.67;;;;;;;;;;5030284;28;20034;-78
2021/11/17 02:54:36;;;;;;;32.30;22.05;;;;;;;;;;5030156;28;20030;-78
2021/11/17 02:57:09;;;;;;;33.45;22.20;;;;;;;;;;5016180;28;20038;-79
2021/11/17 02:59:35;;;;;;;;;;;;;;;;;;5033445;28;20413;-79
2021/11/17 03:02:04;;;;;;;33.15;21.48;;;;;;;;;;5030693;28;19917;-79
2021/11/17 03:04:39;;;;;;;37.25;23.77;;;;;;;;;;5037378;28;20059;-79
2021/11/17 03:07:18;;;;;;;33.25;23.05;;;;;;;;;;5035954;28;20033;-79
2021/11/17 03:09:54;;;;;;;35.60;23.40;;;;;;;;;;5027648;28;20036;-78
2021/11/17 03:12:26;;;;;;;31.02;21.75;;;;;;;;;;5027783;28;20117;-79
2021/11/17 03:15:06;;;;;;;39.25;23.23;;;;;;;;;;5030535;28;20108;-79
2021/11/17 03:18:08;;;;;;;32.65;22.48;;;;;;;;;;5030102;28;20061;-79
2021/11/17 03:20:37;;;;;;;29.80;19.95;;;;;;;;;;4948829;28;20043;-79
2021/11/17 03:23:12;;;;;;;31.40;22.30;;;;;;;;;;4999876;28;20713;-79
2021/11/17 03:25:44;;;;;;;32.47;20.80;;;;;;;;;;5017060;28;20033;-79
2021/11/17 03:28:16;;;;;;;30.20;20.92;;;;;;;;;;5010233;28;20026;-79
2021/11/17 03:30:48;;;;;;;32.28;22.23;;;;;;;;;;5016212;28;20021;-79
2021/11/17 03:33:32;;;;;;;34.25;20.30;;;;;;;;;;5029911;28;20037;-79
2021/11/17 03:35:58;;;;;;;38.90;25.20;;;;;;;;;;5035119;28;20037;-79
2021/11/17 03:38:38;;;;;;;38.70;24.95;;;;;;;;;;5049711;28;20047;-79
2021/11/17 03:41:10;;;;;;;34.05;24.05;;;;;;;;;;5025294;28;20029;-79
2021/11/17 03:43:49;;;;;;;32.67;23.20;;;;;;;;;;5029354;28;20041;-79
2021/11/17 03:46:15;;;;;;;32.50;21.70;;;;;;;;;;5029203;28;20037;-79
2021/11/17 03:49:03;;;;;;;36.92;23.20;;;;;;;;;;5029594;28;20083;-79
2021/11/17 03:51:29;;;;;;;34.10;22.25;;;;;;;;;;5028555;28;20430;-79
2021/11/17 03:54:24;;;;;;;34.97;23.48;;;;;;;;;;5029888;28;20120;-78
2021/11/17 03:56:50;;;;;;;30.75;20.73;;;;;;;;;;4991933;28;20053;-78
2021/11/17 03:59:27;;;;;;;30.92;22.27;;;;;;;;;;5029940;28;20072;-78
2021/11/17 04:01:59;;;;;;;40.00;27.00;;;;;;;;;;5033389;28;20052;-78
2021/11/17 04:04:26;;;;;;;36.80;23.55;;;;;;;;;;5040237;28;20874;-78
2021/11/17 04:06:52;;;;;;;34.42;24.02;;;;;;;;;;5029400;28;20025;-78
2021/11/17 04:09:27;;;;;;;38.15;23.33;;;;;;;;;;5029567;28;20032;-79
2021/11/17 04:12:18;;;;;;;35.03;22.90;;;;;;;;;;5028853;28;20033;-79
2021/11/17 04:14:52;;;;;;;33.85;23.60;;;;;;;;;;5038824;28;20087;-78
2021/11/17 04:17:18;;;;;;;32.22;22.70;;;;;;;;;;5042048;28;20580;-79
2021/11/17 04:20:11;;;;;;;33.35;23.48;;;;;;;;;;5030999;28;20107;-79
2021/11/17 04:22:37;;;;;;;32.30;22.65;;;;;;;;;;5038033;28;20059;-78
2021/11/17 04:25:21;;;;;;;36.17;23.98;;;;;;;;;;5053326;28;20036;-79
2021/11/17 04:27:53;;;;;;;36.10;24.27;;;;;;;;;;5045482;28;20483;-79
2021/11/17 04:30:25;;;;;;;34.80;23.58;;;;;;;;;;5033588;28;20114;-78
2021/11/17 04:32:58;;;;;;;39.90;25.67;;;;;;;;;;5032320;28;20033;-79
2021/11/17 04:35:26;;;;;;;;;;;;;;;;;;5033236;28;20037;-78
2021/11/17 04:37:52;;;;;;;40.92;24.83;;;;;;;;;;5040600;28;19913;-79
2021/11/17 04:40:32;;;;;;;34.20;21.77;;;;;;;;;;5032898;28;20479;-79
2021/11/17 04:42:58;;;;;;;33.95;24.15;;;;;;;;;;5032534;28;20049;-79
2021/11/17 04:45:36;;;;;;;38.20;25.27;;;;;;;;;;5032919;28;20570;-79
2021/11/17 04:48:02;;;;;;;39.47;25.83;;;;;;;;;;5025251;28;20034;-78
2021/11/17 04:50:38;;;;;;;36.00;25.00;;;;;;;;;;5050890;28;20036;-79
2021/11/17 04:53:22;;;;;;;41.70;27.33;;;;;;;;;;5043960;28;20040;-79
2021/11/17 04:55:48;;;;;;;37.35;24.30;;;;;;;;;;5032655;28;20033;-78
2021/11/17 04:58:19;;;;;;;36.90;26.02;;;;;;;;;;5031758;28;20068;-79
2021/11/17 05:00:45;;;;;;;39.22;26.85;;;;;;;;;;5012624;28;20841;-79
2021/11/17 05:03:18;;;;;;;35.72;25.63;;;;;;;;;;5019854;28;20061;-79
2021/11/17 05:05:50;;;;;;;36.13;23.63;;;;;;;;;;5052515;28;20033;-79
2021/11/17 05:08:35;;;;;;;44.40;26.63;;;;;;;;;;5049152;28;20121;-79
2021/11/17 05:11:07;;;;;;;42.35;27.42;;;;;;;;;;5035328;28;20078;-79
2021/11/17 05:13:33;;;;;;;37.67;26.65;;;;;;;;;;5047991;28;20037;-79
2021/11/17 05:16:11;;;;;;;38.25;25.73;;;;;;;;;;5032287;28;20044;-79
2021/11/17 05:18:41;;;;;;;40.60;24.10;;;;;;;;;;5031397;28;20053;-79
2021/11/17 05:21:13;;;;;;;39.53;23.83;;;;;;;;;;5011727;28;20041;-79
2021/11/17 05:23:39;;;;;;;43.83;27.52;;;;;;;;;;5011994;28;20037;-79
2021/11/17 05:26:12;;;;;;;42.78;27.45;;;;;;;;;;5023477;28;20056;-79
2021/11/17 05:28:50;;;;;;;39.75;25.85;;;;;;;;;;5032082;28;20036;-78
2021/11/17 05:31:19;;;;;;;44.42;28.10;;;;;;;;;;5031376;28;20030;-79
2021/11/17 05:34:05;;;;;;;46.63;26.23;;;;;;;;;;5032114;28;20033;-79
2021/11/17 05:36:33;;;;;;;47.90;29.92;;;;;;;;;;5031441;28;20075;-78
2021/11/17 05:38:59;;;;;;;41.72;28.23;;;;;;;;;;5031838;28;20037;-78
2021/11/17 05:41:44;;;;;;;46.40;28.88;;;;;;;;;;5030989;28;20036;-78
2021/11/17 05:44:13;;;;;;;41.00;28.17;;;;;;;;;;5036313;28;20032;-78
2021/11/17 05:46:39;;;;;;;45.88;30.25;;;;;;;;;;5040360;28;20039;-79
2021/11/17 05:49:17;;;;;;;39.80;24.77;;;;;;;;;;5031783;28;20134;-79
2021/11/17 05:51:43;;;;;;;40.13;27.25;;;;;;;;;;5031010;28;20052;-78
2021/11/17 05:54:28;;;;;;;41.78;24.85;;;;;;;;;;5031462;28;20463;-79
2021/11/17 05:57:00;;;;;;;44.63;26.92;;;;;;;;;;5030747;28;20491;-79
2021/11/17 05:59:26;;;;;;;38.53;25.02;;;;;;;;;;5031259;28;20120;-79
2021/11/17 06:02:15;;;;;;;45.55;25.92;;;;;;;;;;5031067;28;20096;-79
2021/11/17 06:04:41;;;;;;;44.40;26.40;;;;;;;;;;5020376;28;20060;-79
2021/11/17 06:07:07;;;;;;;52.33;30.90;;;;;;;;;;5030158;28;20038;-79
2021/11/17 06:09:33;;;;;;;36.67;24.90;;;;;;;;;;5030318;28;20037;-79
2021/11/17 06:12:01;;;;;;;41.22;25.92;;;;;;;;;;5031395;28;20036;-78
2021/11/17 06:14:30;;;;;;;38.25;24.77;;;;;;;;;;5030387;28;20029;-78
2021/11/17 06:17:00;;;;;;;47.80;29.33;;;;;;;;;;5030022;28;20635;-78
2021/11/17 06:19:28;;;;;;;43.42;26.40;;;;;;;;;;5032747;28;20900;-79
2021/11/17 06:21:55;;;;;;;40.97;26.30;;;;;;;;;;5027580;28;20044;-79
2021/11/17 06:24:23;;;;;;;44.97;25.38;;;;;;;;;;5023936;28;20455;-78
2021/11/17 06:26:49;;;;;;;43.97;26.85;;;;;;;;;;5027489;28;20025;-78
2021/11/17 06:29:24;;;;;;;43.90;27.58;;;;;;;;;;5036363;28;20037;-78
2021/11/17 06:31:51;;;;;;;43.55;26.77;;;;;;;;;;5030892;28;20071;-78
2021/11/17 06:34:36;;;;;;;48.88;28.85;;;;;;;;;;5030673;28;20037;-78
2021/11/17 06:37:04;;;;;;;42.95;25.83;;;;;;;;;;5030273;28;20083;-78
2021/11/17 06:39:31;;;;;;;42.97;26.63;;;;;;;;;;5026149;28;20033;-79
2021/11/17 06:41:57;;;;;;;40.80;25.27;;;;;;;;;;5032918;28;20103;-79
2021/11/17 06:44:23;;;;;;;48.45;28.42;;;;;;;;;;5029497;28;20450;-79
2021/11/17 06:46:50;;;;;;;42.20;26.38;;;;;;;;;;5031116;28;20064;-78
2021/11/17 06:49:16;;;;;;;43.58;28.45;;;;;;;;;;5030635;28;20053;-79
2021/11/17 06:51:42;;;;;;;40.72;27.20;;;;;;;;;;5028770;28;20026;-79
2021/11/17 06:54:08;;;;;;;45.47;26.77;;;;;;;;;;5028244;28;20040;-79
2021/11/17 06:56:34;;;;;;;45.95;27.70;;;;;;;;;;5029726;28;20030;-79
2021/11/17 06:59:00;;;;;;;42.92;26.45;;;;;;;;;;5029539;28;20087;-79
2021/11/17 07:01:26;;;;;;;46.50;26.80;;;;;;;;;;5036203;28;20029;-79
2021/11/17 07:03:52;;;;;;;45.50;27.33;;;;;;;;;;5035466;28;20043;-79
2021/11/17 07:06:18;;;;;;;46.13;27.13;;;;;;;;;;5030763;28;20037;-79
2021/11/17 07:08:44;;;;;;;41.17;26.38;;;;;;;;;;5030585;28;20029;-78
2021/11/17 07:11:10;;;;;;;43.53;26.08;;;;;;;;;;5028586;28;20040;-79
2021/11/17 07:13:36;;;;;;;52.10;26.92;;;;;;;;;;5026736;28;20052;-79
2021/11/17 07:16:03;;;;;;;43.72;27.30;;;;;;;;;;5029266;28;20079;-79
2021/11/17 07:18:30;;;;;;;44.30;26.42;;;;;;;;;;5014514;28;20073;-79
2021/11/17 07:20:56;;;;;;;47.25;28.08;;;;;;;;;;5026058;28;20033;-78
2021/11/17 07:23:22;;;;;;;41.58;24.40;;;;;;;;;;5029110;28;20548;-79
2021/11/17 07:25:48;;;;;;;47.17;26.67;;;;;;;;;;5035184;28;20075;-79
2021/11/17 07:28:14;;;;;;;39.22;25.58;;;;;;;;;;5032129;28;20029;-79
2021/11/17 07:30:42;;;;;;;44.22;24.92;;;;;;;;;;5035729;28;20033;-80
2021/11/17 07:33:08;;;;;;;36.22;22.75;;;;;;;;;;5030761;28;20045;-79
2021/11/17 07:35:35;;;;;;;40.38;24.70;;;;;;;;;;5031868;28;20041;-79
2021/11/17 07:38:02;;;;;;;36.63;23.88;;;;;;;;;;5028697;28;20037;-80
2021/11/17 07:40:29;;;;;;;38.42;22.98;;;;;;;;;;5028627;28;20068;-79
2021/11/17 07:42:56;;;;;;;38.33;23.02;;;;;;;;;;5024970;28;20049;-79
2021/11/17 07:45:22;;;;;;;37.65;23.35;;;;;;;;;;5028683;28;20086;-79
2021/11/17 07:47:48;;;;;;;44.67;24.55;;;;;;;;;;5028481;28;20040;-79
2021/11/17 07:50:15;;;;;;;35.80;22.75;;;;;;;;;;5030796;28;20041;-79
2021/11/17 07:52:41;;;;;;;37.35;22.50;;;;;;;;;;5028325;28;20029;-79
2021/11/17 07:55:09;;;;;;;36.60;22.60;;;;;;;;;;5031520;28;20495;-78
2021/11/17 07:57:36;;;;;;;36.75;21.08;;;;;;;;;;5032735;28;20037;-79
2021/11/17 08:00:03;;;;;;;32.22;21.20;;;;;;;;;;5028475;28;20057;-79
2021/11/17 08:02:29;;;;;;;40.80;21.40;;;;;;;;;;5033116;28;20017;-79
2021/11/17 08:04:55;;;;;;;29.88;19.67;;;;;;;;;;5032242;28;20037;-78
2021/11/17 08:07:21;;;;;;;31.50;19.90;;;;;;;;;;5033385;28;20474;-79
2021/11/17 08:09:49;;;;;;;34.25;19.67;;;;;;;;;;5033533;28;20075;-79
2021/11/17 08:12:15;;;;;;;32.63;19.60;;;;;;;;;;5032635;28;20074;-79
2021/11/17 08:14:41;;;;;;;38.35;20.38;;;;;;;;;;5033031;28;20116;-79
2021/11/17 08:17:07;;;;;;;31.00;19.60;;;;;;;;;;5033466;28;20472;-79
2021/11/17 08:19:33;;;;;;;29.27;19.70;;;;;;;;;;5032178;28;20099;-79
2021/11/17 08:22:06;;;;;;;33.83;19.92;;;;;;;;;;5032710;28;20033;-78
2021/11/17 08:24:32;;;;;;;;;;;;;;;;;;5026325;28;20034;-79
2021/11/17 08:26:58;;;;;;;31.23;19.63;;;;;;;;;;5028229;28;19924;-79
2021/11/17 08:29:24;;;;;;;33.83;19.65;;;;;;;;;;5032828;28;20033;-79
2021/11/17 08:31:50;;;;;;;31.92;17.42;;;;;;;;;;5034197;28;20029;-79
2021/11/17 08:34:15;;;;;;;31.98;18.92;;;;;;;;;;5032132;28;20599;-79
2021/11/17 08:36:42;;;;;;;28.52;18.00;;;;;;;;;;5034532;28;20108;-79
2021/11/17 08:39:09;;;;;;;31.20;17.38;;;;;;;;;;5037142;28;20127;-79
2021/11/17 08:41:35;;;;;;;30.40;18.45;;;;;;;;;;5041136;28;20037;-79
2021/11/17 08:44:01;;;;;;;31.55;20.15;;;;;;;;;;5046279;28;20033;-79
2021/11/17 08:46:27;;;;;;;27.80;19.20;;;;;;;;;;5038617;28;20048;-78
2021/11/17 08:48:56;;;;;;;29.77;18.52;;;;;;;;;;5032640;28;20033;-79
2021/11/17 08:51:29;;;;;;;31.27;20.90;;;;;;;;;;5032608;28;20108;-79
2021/11/17 08:53:55;;;;;;;29.98;18.77;;;;;;;;;;5032683;28;20036;-79
2021/11/17 08:56:21;;;;;;;26.85;17.90;;;;;;;;;;5032324;28;20030;-79
2021/11/17 08:58:47;;;;;;;29.05;19.02;;;;;;;;;;5032857;28;20040;-79
2021/11/17 09:01:14;;;;;;;32.25;19.70;;;;;;;;;;5040839;28;20140;-79
2021/11/17 09:03:40;;;;;;;28.77;17.88;;;;;;;;;;5031967;28;20033;-79
2021/11/17 09:06:07;;;;;;;29.30;17.05;;;;;;;;;;5031385;28;20501;-79
2021/11/17 09:08:34;;;;;;;29.75;19.42;;;;;;;;;;5032358;28;20063;-78
2021/11/17 09:11:01;;;;;;;28.17;17.05;;;;;;;;;;5031716;28;21210;-79
2021/11/17 09:13:28;;;;;;;26.67;16.98;;;;;;;;;;5050319;28;20600;-79
2021/11/17 09:15:55;;;;;;;27.55;17.05;;;;;;;;;;5031930;28;20042;-78
2021/11/17 09:18:22;;;;;;;27.80;17.40;;;;;;;;;;5031674;28;20502;-79
2021/11/17 09:20:48;;;;;;;30.17;19.02;;;;;;;;;;5031001;28;20103;-78
2021/11/17 09:23:15;;;;;;;27.27;17.55;;;;;;;;;;5031541;28;20938;-78
2021/11/17 09:25:41;;;;;;;25.75;18.52;;;;;;;;;;5044718;28;20032;-79
2021/11/17 09:28:08;;;;;;;24.33;16.35;;;;;;;;;;5034097;28;20040;-79
2021/11/17 09:30:36;;;;;;;25.25;16.23;;;;;;;;;;5031473;28;20099;-79
2021/11/17 09:33:03;;;;;;;24.85;16.85;;;;;;;;;;5040183;28;20040;-79
2021/11/17 09:35:31;;;;;;;22.17;15.27;;;;;;;;;;5031010;28;20525;-78
2021/11/17 09:37:58;;;;;;;22.30;14.25;;;;;;;;;;5031892;28;20126;-79
2021/11/17 09:40:44;;;;;;;21.25;14.48;;;;;;;;;;5020803;28;20053;-79
2021/11/17 09:43:12;;;;;;;22.33;13.98;;;;;;;;;;5011580;28;20029;-79
2021/11/17 09:45:40;;;;;;;18.83;12.60;;;;;;;;;;5026241;28;20030;-79
2021/11/17 09:48:06;;;;;;;19.35;13.18;;;;;;;;;;5016856;28;20030;-78
2021/11/17 09:50:36;;;;;;;27.10;16.77;;;;;;;;;;5014970;28;20116;-79
2021/11/17 09:53:09;;;;;;;25.17;15.90;;;;;;;;;;5034325;28;20029;-79
2021/11/17 09:55:35;;;;;;;22.45;13.90;;;;;;;;;;5038651;28;20037;-78
2021/11/17 09:58:06;;;;;;;20.88;13.30;;;;;;;;;;5031045;28;20040;-78
2021/11/17 10:00:46;;;;;;;23.70;14.68;;;;;;;;;;5031255;28;20029;-79
2021/11/17 10:03:17;;;;;;;17.38;9.93;;;;;;;;;;5030442;28;20148;-79
2021/11/17 10:06:17;;;;;;;21.65;11.80;;;;;;;;;;5031158;28;20044;-79
2021/11/17 10:14:03;;;;;;;18.38;11.15;;;;;;;;;;5024079;28;20088;-79
2021/11/17 10:16:30;;;;;;;17.17;10.40;;;;;;;;;;5029849;28;20395;-79
2021/11/17 10:19:15;;;;;;;15.85;10.50;;;;;;;;;;5039730;28;20064;-79
2021/11/17 10:21:42;;;;;;;12.38;8.57;;;;;;;;;;5033252;28;20769;-78
2021/11/17 10:24:10;;;;;;;16.80;9.38;;;;;;;;;;5037676;28;20120;-78
2021/11/17 10:26:46;;;;;;;14.63;9.75;;;;;;;;;;5034805;28;20830;-78
2021/11/17 10:29:41;;;;;;;13.80;9.95;;;;;;;;;;5033601;28;20033;-78
2021/11/17 10:32:13;;;;;;;23.65;12.52;;;;;;;;;;5016252;28;20606;-78
2021/11/17 10:34:49;;;;;;;21.25;12.52;;;;;;;;;;5030689;28;20036;-78
2021/11/17 10:37:28;;;;;;;15.25;9.50;;;;;;;;;;5030626;28;20030;-78
2021/11/17 10:39:54;;;;;;;18.58;11.93;;;;;;;;;;5028203;28;20104;-78
2021/11/17 10:42:20;;;;;;;19.05;12.55;;;;;;;;;;5030311;28;20037;-78
2021/11/17 10:44:59;;;;;;;18.85;12.05;;;;;;;;;;5029911;28;20029;-78
2021/11/17 10:47:33;;;;;;;18.45;11.20;;;;;;;;;;5030523;28;20140;-78
2021/11/17 10:50:05;;;;;;;22.92;11.88;;;;;;;;;;5029940;28;20037;-78
2021/11/17 10:52:33;;;;;;;20.27;12.60;;;;;;;;;;5010634;28;20045;-78
2021/11/17 10:55:01;;;;;;;23.05;14.32;;;;;;;;;;5024168;28;20034;-78
2021/11/17 10:57:34;;;;;;;25.42;14.13;;;;;;;;;;5021100;28;20034;-78
2021/11/17 11:00:01;;;;;;;20.88;12.48;;;;;;;;;;5039466;28;20127;-78
2021/11/17 11:02:29;;;;;;;22.50;12.73;;;;;;;;;;5030222;28;20116;-78
2021/11/17 11:04:58;;;;;;;15.82;10.13;;;;;;;;;;5029538;28;20107;-78
2021/11/17 11:07:25;;;;;;;15.23;9.35;;;;;;;;;;5030131;28;20469;-78
2021/11/17 11:09:54;;;;;;;18.77;10.85;;;;;;;;;;5029666;28;20048;-78
2021/11/17 11:12:21;;;;;;;16.33;10.02;;;;;;;;;;5029399;28;20029;-78
2021/11/17 11:14:49;;;;;;;12.95;8.25;;;;;;;;;;5044085;28;20088;-78
2021/11/17 11:17:20;;;;;;;15.93;10.35;;;;;;;;;;5042044;28;20114;-78
2021/11/17 11:19:46;;;;;;;13.50;9.40;;;;;;;;;;5034509;28;20044;-78
2021/11/17 11:22:14;;;;;;;18.77;10.70;;;;;;;;;;5032210;28;20495;-78
2021/11/17 11:24:41;;;;;;;14.88;9.98;;;;;;;;;;5029120;28;20069;-78
2021/11/17 11:27:10;;;;;;;17.83;10.52;;;;;;;;;;5029769;28;20017;-78
2021/11/17 11:29:37;;;;;;;14.65;9.35;;;;;;;;;;5028956;28;20029;-78
2021/11/17 11:32:15;;;;;;;14.57;9.32;;;;;;;;;;5029540;28;20025;-78
2021/11/17 11:34:41;;;;;;;16.42;8.45;;;;;;;;;;5015328;28;20446;-78
2021/11/17 11:37:09;;;;;;;13.98;9.23;;;;;;;;;;5028989;28;20087;-78
2021/11/17 11:39:37;;;;;;;21.55;10.10;;;;;;;;;;5029434;28;20034;-78
2021/11/17 11:42:06;;;;;;;17.80;9.93;;;;;;;;;;5030045;28;20053;-78
2021/11/17 11:44:42;;;;;;;15.25;8.70;;;;;;;;;;5022250;28;20642;-78
2021/11/17 11:47:08;;;;;;;13.60;8.85;;;;;;;;;;5032909;28;20071;-78
2021/11/17 11:49:45;;;;;;;13.27;7.63;;;;;;;;;;5032985;28;20033;-78
2021/11/17 11:52:21;;;;;;;12.68;7.30;;;;;;;;;;5028996;28;20061;-79
2021/11/17 11:54:56;;;;;;;11.77;6.80;;;;;;;;;;5029918;28;20051;-78
2021/11/17 11:57:22;;;;;;;12.65;7.05;;;;;;;;;;5028313;28;20038;-78
2021/11/17 11:59:48;;;;;;;12.48;6.10;;;;;;;;;;5029959;28;20091;-78
2021/11/17 12:02:19;;;;;;;13.60;6.70;;;;;;;;;;5031033;28;20038;-78
2021/11/17 12:04:46;;;;;;;13.15;5.95;;;;;;;;;;5029488;28;20698;-78
2021/11/17 12:07:15;;;;;;;8.13;5.18;;;;;;;;;;5028530;28;20026;-78
2021/11/17 12:10:00;;;;;;;11.55;6.13;;;;;;;;;;5029474;28;20473;-78
2021/11/17 12:12:32;;;;;;;13.38;6.60;;;;;;;;;;5028622;28;20034;-78
2021/11/17 12:15:16;;;;;;;11.13;6.18;;;;;;;;;;5021324;28;20046;-78
2021/11/17 12:17:42;;;;;;;9.32;5.03;;;;;;;;;;5034155;28;20033;-78
2021/11/17 12:20:33;;;;;;;9.80;5.20;;;;;;;;;;5038071;28;20084;-78
2021/11/17 12:22:59;;;;;;;7.40;4.38;;;;;;;;;;5025359;28;20037;-78
2021/11/17 12:25:30;;;;;;;6.63;3.78;;;;;;;;;;5031522;28;20132;-78
2021/11/17 12:28:00;;;;;;;9.38;4.53;;;;;;;;;;5029175;28;20072;-78
2021/11/17 12:30:40;;;;;;;8.30;3.95;;;;;;;;;;5039735;28;20112;-78
2021/11/17 12:33:29;;;;;;;7.47;4.22;;;;;;;;;;5009493;28;20471;-78
2021/11/17 12:36:03;;;;;;;8.68;4.03;;;;;;;;;;5016881;28;20551;-78
2021/11/17 12:38:30;;;;;;;8.40;4.30;;;;;;;;;;5029082;28;20033;-78
2021/11/17 12:41:03;;;;;;;9.32;3.95;;;;;;;;;;5030695;28;20055;-79
2021/11/17 12:43:34;;;;;;;8.45;4.10;;;;;;;;;;5032621;28;20517;-78
2021/11/17 12:46:10;;;;;;;6.50;3.57;;;;;;;;;;5032572;28;20042;-78
2021/11/17 12:48:47;;;;;;;7.18;3.60;;;;;;;;;;5033087;28;20502;-78
2021/11/17 12:51:17;;;;;;;9.95;3.17;;;;;;;;;;5040737;28;20029;-78
2021/11/17 12:53:47;;;;;;;7.18;3.47;;;;;;;;;;5033075;28;20467;-77
2021/11/17 12:56:37;;;;;;;7.93;3.60;;;;;;;;;;5040926;28;20044;-78
2021/11/17 12:59:26;;;;;;;6.15;3.63;;;;;;;;;;5017792;28;20423;-78
2021/11/17 13:01:52;;;;;;;9.52;3.45;;;;;;;;;;5043378;28;20045;-78
2021/11/17 13:04:23;;;;;;;9.60;3.95;;;;;;;;;;5040269;28;20079;-78
2021/11/17 13:06:54;;;;;;;7.72;3.72;;;;;;;;;;5031973;28;20029;-78
2021/11/17 13:09:20;;;;;;;6.93;3.75;;;;;;;;;;5038220;28;20061;-78
2021/11/17 13:11:47;;;;;;;6.97;3.72;;;;;;;;;;5041752;28;20033;-78
2021/11/17 13:14:25;;;;;;;6.30;3.15;;;;;;;;;;5032234;28;20044;-78
2021/11/17 13:16:52;;;;;;;7.57;3.60;;;;;;;;;;5029376;28;20072;-78
2021/11/17 13:19:19;;;;;;;6.63;3.50;;;;;;;;;;5031733;28;20052;-78
2021/11/17 13:21:54;;;;;;;11.15;3.67;;;;;;;;;;5029494;28;20037;-78
2021/11/17 13:24:23;;;;;;;8.57;3.70;;;;;;;;;;5021433;28;20044;-78
2021/11/17 13:26:51;;;;;;;10.27;3.65;;;;;;;;;;5030922;28;20032;-78
2021/11/17 13:29:23;;;;;;;8.45;3.47;;;;;;;;;;5031839;28;20039;-78
2021/11/17 13:32:01;;;;;;;7.00;3.45;;;;;;;;;;5031533;28;20107;-78
2021/11/17 13:34:39;;;;;;;5.93;2.88;;;;;;;;;;5012369;28;20041;-78
2021/11/17 13:37:25;;;;;;;6.28;2.95;;;;;;;;;;5028251;28;20562;-78
2021/11/17 13:40:11;;;;;;;6.05;2.83;;;;;;;;;;5031689;28;20711;-78
2021/11/17 13:42:38;;;;;;;10.23;3.13;;;;;;;;;;5030258;28;20037;-78
2021/11/17 13:45:07;;;;;;;8.38;2.95;;;;;;;;;;5031608;28;20589;-78
2021/11/17 13:47:33;;;;;;;6.47;3.17;;;;;;;;;;5013911;28;20021;-77
2021/11/17 13:49:59;;;;;;;6.07;3.15;;;;;;;;;;5031809;28;20087;-78
2021/11/17 13:52:31;;;;;;;7.43;3.40;;;;;;;;;;5030042;28;20060;-78
2021/11/17 13:54:58;;;;;;;8.77;3.20;;;;;;;;;;5031486;28;20116;-78
2021/11/17 13:57:25;;;;;;;6.97;3.88;;;;;;;;;;5031470;28;20033;-78
2021/11/17 13:59:51;;;;;;;6.35;3.35;;;;;;;;;;5032582;28;20056;-78
2021/11/17 14:02:17;;;;;;;9.05;3.65;;;;;;;;;;5018088;28;20061;-78
2021/11/17 14:04:43;;;;;;;7.18;3.47;;;;;;;;;;5031371;28;20063;-78
2021/11/17 14:07:13;;;;;;;6.90;2.90;;;;;;;;;;5031549;28;20025;-78
2021/11/17 14:09:39;;;;;;;11.77;3.75;;;;;;;;;;5032924;28;20038;-78
2021/11/17 14:12:06;;;;;;;9.55;3.40;;;;;;;;;;5031304;28;20109;-78
2021/11/17 14:14:33;;;;;;;6.05;2.75;;;;;;;;;;5022105;28;20037;-78
2021/11/17 14:16:59;;;;;;;8.15;4.25;;;;;;;;;;5027308;28;20076;-78
2021/11/17 14:19:26;;;;;;;7.85;2.83;;;;;;;;;;5030430;28;20863;-78
2021/11/17 14:21:52;;;;;;;8.57;3.50;;;;;;;;;;5030633;28;20368;-78
2021/11/17 14:24:18;;;;;;;7.88;3.08;;;;;;;;;;5030349;28;20065;-78
2021/11/17 14:26:45;;;;;;;6.60;3.28;;;;;;;;;;5030949;28;20034;-78
2021/11/17 14:29:14;;;;;;;6.10;3.13;;;;;;;;;;5030262;28;20483;-78
2021/11/17 14:31:42;;;;;;;8.02;3.22;;;;;;;;;;5030424;28;20625;-78
2021/11/17 14:34:08;;;;;;;5.90;3.28;;;;;;;;;;5030428;28;20086;-78
2021/11/17 14:36:39;;;;;;;8.18;3.30;;;;;;;;;;5029942;28;20033;-78
2021/11/17 14:39:07;;;;;;;7.95;3.20;;;;;;;;;;5030749;28;20029;-78
2021/11/17 14:41:33;;;;;;;9.50;3.83;;;;;;;;;;5030048;28;20044;-78
2021/11/17 14:44:00;;;;;;;8.77;3.30;;;;;;;;;;5030608;28;20041;-78
2021/11/17 14:46:26;;;;;;;6.28;2.85;;;;;;;;;;5030118;28;20034;-78
2021/11/17 14:48:52;;;;;;;8.13;3.13;;;;;;;;;;5030812;28;20029;-78
2021/11/17 14:51:18;;;;;;;10.88;4.30;;;;;;;;;;5029408;28;20037;-78
2021/11/17 14:53:45;;;;;;;7.85;3.33;;;;;;;;;;5030437;28;20037;-78
2021/11/17 14:56:12;;;;;;;7.53;3.15;;;;;;;;;;5028879;28;20061;-78
2021/11/17 14:58:39;;;;;;;8.40;3.95;;;;;;;;;;5030431;28;20896;-78
2021/11/17 15:01:08;;;;;;;12.55;3.65;;;;;;;;;;5029315;28;20064;-78
2021/11/17 15:03:35;;;;;;;10.93;3.35;;;;;;;;;;5029858;28;20073;-78
2021/11/17 15:06:01;;;;;;;10.38;3.53;;;;;;;;;;5029439;28;20041;-78
2021/11/17 15:08:27;;;;;;;6.70;2.95;;;;;;;;;;5030089;28;20057;-78
2021/11/17 15:10:53;;;;;;;9.45;3.72;;;;;;;;;;5029880;28;20026;-78
2021/11/17 15:13:19;;;;;;;7.88;2.97;;;;;;;;;;5029582;28;20455;-78
2021/11/17 15:15:47;;;;;;;6.75;2.80;;;;;;;;;;5029716;28;20540;-78
2021/11/17 15:18:17;;;;;;;7.35;3.00;;;;;;;;;;5031703;28;20504;-78
2021/11/17 15:20:43;;;;;;;7.28;3.22;;;;;;;;;;5041082;28;20063;-78
2021/11/17 15:23:09;;;;;;;7.18;3.40;;;;;;;;;;5036698;28;20466;-78
2021/11/17 15:25:37;;;;;;;9.50;3.70;;;;;;;;;;5040533;28;20029;-78
2021/11/17 15:28:07;;;;;;;10.52;3.35;;;;;;;;;;5032450;28;20116;-78
2021/11/17 15:30:43;;;;;;;8.57;3.35;;;;;;;;;;5038007;28;20072;-78
2021/11/17 15:33:09;;;;;;;10.50;3.40;;;;;;;;;;5026798;28;20044;-78
2021/11/17 15:35:36;;;;;;;8.25;3.42;;;;;;;;;;5041172;28;20098;-77
2021/11/17 15:38:03;;;;;;;9.18;2.95;;;;;;;;;;5029624;28;20483;-78
2021/11/17 15:40:31;;;;;;;9.10;3.25;;;;;;;;;;5037474;28;20048;-78
2021/11/17 15:42:57;;;;;;;13.20;4.10;;;;;;;;;;5036619;28;20129;-78
2021/11/17 15:45:24;;;;;;;14.38;3.72;;;;;;;;;;5028992;28;20068;-78
2021/11/17 15:47:52;;;;;;;12.27;3.97;;;;;;;;;;5028215;28;20505;-78
2021/11/17 15:50:20;;;;;;;8.73;4.65;;;;;;;;;;5029091;28;20056;-78
2021/11/17 15:52:46;;;;;;;8.65;4.47;;;;;;;;;;5028711;28;20436;-78
2021/11/17 15:55:13;;;;;;;9.23;4.30;;;;;;;;;;5029646;28;20068;-78
2021/11/17 15:57:40;;;;;;;9.80;4.20;;;;;;;;;;5029126;28;20025;-78
2021/11/17 16:00:06;;;;;;;8.65;4.45;;;;;;;;;;5028855;28;20045;-78
2021/11/17 16:02:32;;;;;;;9.98;4.25;;;;;;;;;;5029179;28;20083;-78
2021/11/17 16:04:58;;;;;;;11.57;4.18;;;;;;;;;;5029336;28;20466;-78
2021/11/17 16:07:25;;;;;;;7.70;3.75;;;;;;;;;;5028958;28;20074;-78
2021/11/17 16:09:54;;;;;;;7.20;4.18;;;;;;;;;;5043119;28;20037;-78
2021/11/17 16:12:21;;;;;;;8.65;4.32;;;;;;;;;;5031891;28;20033;-78
2021/11/17 16:14:47;;;;;;;10.35;4.78;;;;;;;;;;5023436;28;20037;-78
2021/11/17 16:17:13;;;;;;;16.90;4.80;;;;;;;;;;5033393;28;20052;-78
2021/11/17 16:19:41;;;;;;;14.57;5.57;;;;;;;;;;5032546;28;20581;-78
2021/11/17 16:22:09;;;;;;;9.95;4.22;;;;;;;;;;5036823;28;20029;-78
2021/11/17 16:27:20;;;;;;;8.88;3.97;;;;;;;;;;5032989;28;20091;-78
2021/11/17 16:29:48;;;;;;;9.98;4.60;;;;;;;;;;5032766;28;20029;-78
2021/11/17 16:32:14;;;;;;;9.55;4.80;;;;;;;;;;5033202;28;20036;-78
2021/11/17 16:34:41;;;;;;;12.10;5.80;;;;;;;;;;5041372;28;20085;-78
2021/11/17 16:37:08;;;;;;;10.32;5.53;;;;;;;;;;5039262;28;20515;-78
2021/11/17 16:39:34;;;;;;;11.18;5.05;;;;;;;;;;5032769;28;20029;-78
2021/11/17 16:42:00;;;;;;;10.90;5.20;;;;;;;;;;5032641;28;20034;-78
2021/11/17 16:44:26;;;;;;;8.20;4.32;;;;;;;;;;5032679;28;20029;-78
2021/11/17 16:46:52;;;;;;;9.50;4.57;;;;;;;;;;5032740;28;20029;-78
2021/11/17 16:49:19;;;;;;;13.13;5.13;;;;;;;;;;5032326;28;20479;-78
2021/11/17 16:52:04;;;;;;;16.42;5.43;;;;;;;;;;5031574;28;20080;-78
2021/11/17 16:54:30;;;;;;;8.65;4.47;;;;;;;;;;5012290;28;20044;-78
2021/11/17 16:56:56;;;;;;;10.73;4.80;;;;;;;;;;5033828;28;20033;-78
2021/11/17 16:59:22;;;;;;;11.02;4.60;;;;;;;;;;5032188;28;20034;-78
2021/11/17 17:01:48;;;;;;;11.82;4.93;;;;;;;;;;5018785;28;20061;-78
2021/11/17 17:04:14;;;;;;;9.77;4.72;;;;;;;;;;5028612;28;20087;-77
2021/11/17 17:06:40;;;;;;;10.32;4.78;;;;;;;;;;5022798;28;20033;-78
2021/11/17 17:09:06;;;;;;;10.48;4.30;;;;;;;;;;5032356;28;20478;-78
2021/11/17 17:11:32;;;;;;;9.80;4.88;;;;;;;;;;5031099;28;20113;-77
2021/11/17 17:13:58;;;;;;;8.73;4.80;;;;;;;;;;5034307;28;20116;-77
2021/11/17 17:16:25;;;;;;;8.75;4.97;;;;;;;;;;5031283;28;20538;-77
2021/11/17 17:18:51;;;;;;;14.90;5.80;;;;;;;;;;5031110;28;20045;-78